Temp: 12.6°C   Baro: 995.1mb
  Wind: 4.9mph   Dir: SW (232°)
  Rain: 1.8mm (0.0mm/hr)
  Solar: 113W/m2  Hum: 84%
 
Bath Spa Weather Station Historical Data
Daily Summary for April 08, 2021 Units:  Metric    English   Both
Daily Weekly Monthly Yearly Custom
  High: Low: Average:
Temperature: 10.7 °C 2.2 °C 6.7 °C
Dew Point: 6.4 °C -0.6 °C 3.6 °C
Humidity: 82.4% 68% 78%
Wind Speed: 17.1km/h 0km/h 6.8km/h
Wind Gust: 29km/h - -
Wind- - West
Pressure: 1025.3 hPa 1016.1 hPa -
Precipitation: 0 mm    
Historical Graphs
 
 
Tabular Data for April 08, 2021
Time Temperature Dew Point Pressure Wind Wind Speed Wind Gust Humidity Rainfall Rate (Hourly) solar
00:03 2.2 °C -0.6 °C 1025.3 hPa NNW 1.9 km/h 3.2 km/h 79% 0 mm 0 W/m2
00:09 2.2 °C -0.6 °C 1025.3 hPa Calm   1.6 km/h 79% 0 mm 0 W/m2
00:14 2.2 °C -0.6 °C 1025.3 hPa Calm     79% 0 mm 0 W/m2
00:19 2.2 °C -0.6 °C 1025.3 hPa Calm     79% 0 mm 0 W/m2
00:24 2.3 °C -0.5 °C 1025.3 hPa Calm     79% 0 mm 0 W/m2
00:29 2.3 °C -0.5 °C 1025.3 hPa Calm     79% 0 mm 0 W/m2
00:34 2.3 °C -0.5 °C 1025.3 hPa Calm     79% 0 mm 0 W/m2
00:39 2.4 °C -0.4 °C 1025.3 hPa Calm     79% 0 mm 0 W/m2
00:44 2.4 °C -0.4 °C 1025.3 hPa Calm     79% 0 mm 0 W/m2
00:49 2.4 °C -0.3 °C 1025.3 hPa Calm     79.2% 0 mm 0 W/m2
00:54 2.5 °C -0.3 °C 1025.3 hPa Calm     79% 0 mm 0 W/m2
00:59 2.5 °C -0.3 °C 1024.9 hPa Calm     79.2% 0 mm 0 W/m2
01:04 2.6 °C -0.1 °C 1025.3 hPa Calm     79.4% 0 mm 0 W/m2
01:09 2.6 °C -0.2 °C 1025.3 hPa NNW 2.6 km/h 6.4 km/h 79.2% 0 mm 0 W/m2
01:14 2.6 °C -0.2 °C 1025.3 hPa NNW 1.6 km/h 4.8 km/h 79.3% 0 mm 0 W/m2
01:19 2.6 °C -0.2 °C 1025.3 hPa NNW 1.4 km/h 3.2 km/h 79.2% 0 mm 0 W/m2
01:24 2.6 °C -0.2 °C 1025.3 hPa Calm   3.2 km/h 79% 0 mm 0 W/m2
01:29 2.6 °C -0.2 °C 1025.3 hPa NNW 1.3 km/h 3.2 km/h 79% 0 mm 0 W/m2
01:34 2.6 °C 0 °C 1024.9 hPa Calm   1.6 km/h 80% 0 mm 0 W/m2
01:39 2.7 °C 0.1 °C 1024.9 hPa Calm     80% 0 mm 0 W/m2
01:44 2.7 °C 0.2 °C 1024.9 hPa Calm   1.6 km/h 80% 0 mm 0 W/m2
01:59 2.9 °C 0.3 °C 1024.9 hPa Calm     80% 0 mm 0 W/m2
02:04 2.9 °C 0.3 °C 1024.9 hPa Calm     80% 0 mm 0 W/m2
02:09 2.9 °C 0.3 °C 1024.9 hPa NNW 0.3 km/h 1.6 km/h 80% 0 mm 0 W/m2
02:14 2.9 °C 0.3 °C 1024.9 hPa NNW 3.2 km/h 4.8 km/h 80% 0 mm 0 W/m2
02:19 2.9 °C 0.3 °C 1024.9 hPa NNW 3.2 km/h 4.8 km/h 80% 0 mm 0 W/m2
02:24 2.9 °C 0.3 °C 1024.6 hPa NNW 1.3 km/h 4.8 km/h 80% 0 mm 0 W/m2
02:29 2.9 °C 0.3 °C 1024.6 hPa NNW 1.6 km/h 4.8 km/h 80% 0 mm 0 W/m2
02:34 2.9 °C 0.3 °C 1024.6 hPa NNW 3.5 km/h 4.8 km/h 80% 0 mm 0 W/m2
02:39 3 °C 0.4 °C 1024.6 hPa NNW 2.1 km/h 4.8 km/h 80% 0 mm 0 W/m2
02:44 3 °C 0.3 °C 1024.6 hPa Calm   3.2 km/h 79.6% 0 mm 0 W/m2
02:49 3 °C 0.3 °C 1024.6 hPa Calm     79.8% 0 mm 0 W/m2
02:54 3.1 °C 0.4 °C 1024.6 hPa Calm     80% 0 mm 0 W/m2
02:59 3.1 °C 0.4 °C 1024.6 hPa Calm     80% 0 mm 0 W/m2
03:04 3 °C 0.4 °C 1024.6 hPa Calm     80% 0 mm 0 W/m2
03:09 3.1 °C 0.4 °C 1024.6 hPa Calm     80% 0 mm 0 W/m2
03:14 3.1 °C 0.5 °C 1024.6 hPa Calm     80% 0 mm 0 W/m2
03:19 3.1 °C 0.5 °C 1024.6 hPa Calm     80% 0 mm 0 W/m2
03:24 3.2 °C 0.6 °C 1024.6 hPa Calm     80% 0 mm 0 W/m2
03:29 3.2 °C 0.6 °C 1024.6 hPa Calm     80% 0 mm 0 W/m2
03:34 3.2 °C 0.6 °C 1024.6 hPa Calm     80% 0 mm 0 W/m2
03:39 3.2 °C 0.6 °C 1024.3 hPa NNW 1 km/h 3.2 km/h 80% 0 mm 0 W/m2
03:44 3.2 °C 0.6 °C 1024.3 hPa NNW 1.6 km/h 4.8 km/h 80% 0 mm 0 W/m2
03:49 3.2 °C 0.7 °C 1024.3 hPa Calm   1.6 km/h 80% 0 mm 0 W/m2
03:59 3.2 °C 0.6 °C 1023.9 hPa NNW 0.3 km/h 4.8 km/h 80% 0 mm 0 W/m2
04:04 3.2 °C 0.6 °C 1023.9 hPa Calm     80% 0 mm 0 W/m2
04:09 3.3 °C 0.7 °C 1023.9 hPa NNW 3.5 km/h 4.8 km/h 80% 0 mm 0 W/m2
04:19 3.5 °C 0.9 °C 1023.9 hPa NNW 4.2 km/h 8 km/h 80% 0 mm 0 W/m2
04:24 3.6 °C 1 °C 1023.9 hPa NNW 1.8 km/h 4.8 km/h 80% 0 mm 0 W/m2
04:29 3.7 °C 0.9 °C 1023.9 hPa NNW 4.7 km/h 8 km/h 79.2% 0 mm 0 W/m2
04:34 3.7 °C 0.9 °C 1023.9 hPa NNW 3.9 km/h 6.4 km/h 79% 0 mm 0 W/m2
04:39 3.7 °C 0.9 °C 1023.9 hPa NNW 3.9 km/h 8 km/h 79% 0 mm 0 W/m2
04:44 3.7 °C 0.9 °C 1023.9 hPa NNW 4 km/h 8 km/h 79% 0 mm 0 W/m2
04:49 3.7 °C 0.9 °C 1023.9 hPa NNW 1 km/h 6.4 km/h 79% 0 mm 0 W/m2
04:54 3.8 °C 0.9 °C 1023.6 hPa NNW 1.1 km/h 4.8 km/h 79% 0 mm 0 W/m2
04:59 3.8 °C 1 °C 1023.9 hPa NNW 1.9 km/h 4.8 km/h 79% 0 mm 0 W/m2
05:04 3.8 °C 1 °C 1023.9 hPa NNW 2.9 km/h 4.8 km/h 79% 0 mm 0 W/m2
05:09 3.8 °C 1 °C 1023.6 hPa NNW 0.8 km/h 4.8 km/h 79% 0 mm 0 W/m2
05:14 3.9 °C 1.1 °C 1023.6 hPa Calm   1.6 km/h 78.8% 0 mm 0 W/m2
05:19 3.9 °C 1.1 °C 1023.6 hPa Calm     78.8% 0 mm 0 W/m2
05:24 3.9 °C 1.1 °C 1023.6 hPa Calm     78.8% 0 mm 0 W/m2
05:29 3.9 °C 1 °C 1023.6 hPa NNW 1.3 km/h 3.2 km/h 78.4% 0 mm 0 W/m2
05:34 3.9 °C 1.1 °C 1023.6 hPa NNW 1.4 km/h 4.8 km/h 79% 0 mm 0 W/m2
05:39 3.9 °C 1.1 °C 1023.6 hPa NNW 0.6 km/h 3.2 km/h 79% 0 mm 0 W/m2
05:44 3.9 °C 1.1 °C 1023.2 hPa NNW 0.3 km/h 4.8 km/h 79% 0 mm 0 W/m2
05:49 3.9 °C 1.1 °C 1023.2 hPa Calm     79% 0 mm 0 W/m2
05:54 3.9 °C 1.1 °C 1023.2 hPa NNW 2.6 km/h 4.8 km/h 79% 0 mm 0 W/m2
05:59 3.9 °C 1.1 °C 1023.2 hPa NNW 4.5 km/h 8 km/h 79% 0 mm 0 W/m2
06:04 4.1 °C 1.3 °C 1023.2 hPa NNW 3.4 km/h 8 km/h 79% 0 mm 0 W/m2
06:09 4.1 °C 1.3 °C 1023.2 hPa NNW 3.9 km/h 6.4 km/h 79% 0 mm 0 W/m2
06:14 4.1 °C 1.3 °C 1023.2 hPa NNW 4.8 km/h 8 km/h 79% 0 mm 0 W/m2
06:19 4.2 °C 1.3 °C 1023.2 hPa NNW 3.4 km/h 8 km/h 79% 0 mm 0 W/m2
06:24 4.2 °C 1.4 °C 1023.2 hPa NNW 6 km/h 9.7 km/h 79% 0 mm 0 W/m2
06:29 4.2 °C 1.4 °C 1023.2 hPa NNW 6 km/h 11.3 km/h 79% 0 mm 0 W/m2
06:34 4.2 °C 1.4 °C 1023.2 hPa NW 7.4 km/h 11.3 km/h 79% 0 mm 0 W/m2
06:39 4.3 °C 1.5 °C 1023.2 hPa WNW 7.1 km/h 12.9 km/h 79% 0 mm 5 W/m2
06:44 4.3 °C 1.5 °C 1023.2 hPa WNW 7.9 km/h 12.9 km/h 79% 0 mm 5 W/m2
06:49 4.3 °C 1.5 °C 1023.2 hPa WNW 6.1 km/h 12.9 km/h 79% 0 mm 9 W/m2
06:54 4.3 °C 1.5 °C 1023.2 hPa WNW 6.6 km/h 12.9 km/h 79% 0 mm 11 W/m2
06:59 4.3 °C 1.5 °C 1023.2 hPa West 7.7 km/h 12.9 km/h 79% 0 mm 16 W/m2
07:04 4.4 °C 1.6 °C 1023.2 hPa West 5.8 km/h 11.3 km/h 79% 0 mm 16 W/m2
07:09 4.4 °C 1.6 °C 1023.2 hPa West 4.7 km/h 12.9 km/h 79% 0 mm 18 W/m2
07:14 4.4 °C 1.6 °C 1023.2 hPa West 4.7 km/h 8 km/h 79% 0 mm 21 W/m2
07:19 4.4 °C 1.7 °C 1023.2 hPa West 5.8 km/h 9.7 km/h 79.4% 0 mm 23 W/m2
07:24 4.5 °C 1.8 °C 1023.2 hPa West 5 km/h 9.7 km/h 80% 0 mm 30 W/m2
07:29 4.6 °C 1.9 °C 1023.2 hPa West 1.9 km/h 6.4 km/h 80% 0 mm 39 W/m2
07:34 4.7 °C 1.9 °C 1023.2 hPa West 2.7 km/h 8 km/h 80% 0 mm 44 W/m2
07:39 4.8 °C 2.1 °C 1023.2 hPa West 2.7 km/h 4.8 km/h 80% 0 mm 46 W/m2
07:44 4.9 °C 2.2 °C 1023.2 hPa West 2.6 km/h 6.4 km/h 80% 0 mm 53 W/m2
07:49 5 °C 2.2 °C 1023.2 hPa West 4.8 km/h 9.7 km/h 79.2% 0 mm 54 W/m2
07:54 5.1 °C 2.2 °C 1023.2 hPa West 6.3 km/h 9.7 km/h 79% 0 mm 62 W/m2
07:59 5.1 °C 2.2 °C 1023.2 hPa WSW 7.2 km/h 12.9 km/h 79% 0 mm 74 W/m2
08:04 5.1 °C 2.2 °C 1023.2 hPa WSW 6 km/h 14.5 km/h 79% 0 mm 72 W/m2
08:09 5.1 °C 2.2 °C 1023.2 hPa WSW 8 km/h 14.5 km/h 79% 0 mm 54 W/m2
08:14 5.2 °C 2.3 °C 1023.2 hPa WSW 6 km/h 14.5 km/h 79.6% 0 mm 58 W/m2
08:19 5.2 °C 2.5 °C 1023.2 hPa WSW 9.2 km/h 14.5 km/h 80% 0 mm 62 W/m2
08:24 5.3 °C 2.6 °C 1023.2 hPa WSW 6 km/h 14.5 km/h 80% 0 mm 74 W/m2
08:29 5.3 °C 2.6 °C 1023.2 hPa WSW 6.6 km/h 14.5 km/h 80% 0 mm 120 W/m2
08:34 5.3 °C 2.6 °C 1022.9 hPa West 7.2 km/h 14.5 km/h 80% 0 mm 148 W/m2
08:39 5.4 °C 2.7 °C 1022.9 hPa West 6.3 km/h 11.3 km/h 80% 0 mm 160 W/m2
08:44 5.6 °C 2.9 °C 1022.9 hPa WSW 9.3 km/h 12.9 km/h 80% 0 mm 153 W/m2
08:49 5.7 °C 3 °C 1022.9 hPa WSW 5.8 km/h 16.1 km/h 79.8% 0 mm 151 W/m2
08:54 5.9 °C 3 °C 1022.9 hPa West 4.5 km/h 14.5 km/h 79.2% 0 mm 137 W/m2
08:59 6 °C 3.2 °C 1022.9 hPa West 6.8 km/h 11.3 km/h 79% 0 mm 137 W/m2
09:04 6.2 °C 3.2 °C 1022.9 hPa West 8.5 km/h 16.1 km/h 79% 0 mm 176 W/m2
09:09 6.2 °C 3.1 °C 1022.9 hPa West 10.9 km/h 20.9 km/h 78% 0 mm 216 W/m2
09:14 6.3 °C 3.1 °C 1022.9 hPa WSW 14 km/h 20.9 km/h 77.2% 0 mm 237 W/m2
09:19 6.4 °C 3.1 °C 1022.9 hPa WSW 8.7 km/h 17.7 km/h 77% 0 mm 255 W/m2
09:24 6.6 °C 3.3 °C 1022.9 hPa West 12.6 km/h 19.3 km/h 77% 0 mm 250 W/m2
09:29 6.6 °C 3.3 °C 1022.9 hPa WSW 10.6 km/h 19.3 km/h 76.6% 0 mm 318 W/m2
09:34 6.8 °C 3.3 °C 1022.9 hPa WSW 10.6 km/h 19.3 km/h 76% 0 mm 301 W/m2
09:39 6.9 °C 3.5 °C 1022.9 hPa SW 6.8 km/h 17.7 km/h 76.4% 0 mm 274 W/m2
09:44 7.2 °C 3.8 °C 1022.9 hPa SW 8 km/h 16.1 km/h 76.4% 0 mm 197 W/m2
09:49 7.2 °C 3.9 °C 1022.9 hPa WSW 9.8 km/h 17.7 km/h 77% 0 mm 207 W/m2
09:54 7.1 °C 3.8 °C 1022.9 hPa WSW 10.9 km/h 16.1 km/h 77% 0 mm 264 W/m2
09:59 7.2 °C 4 °C 1022.6 hPa WSW 8.9 km/h 14.5 km/h 77.2% 0 mm 478 W/m2
10:04 7.4 °C 4.2 °C 1022.6 hPa WSW 9.2 km/h 17.7 km/h 77% 0 mm 496 W/m2
10:09 7.8 °C 4.4 °C 1022.6 hPa WSW 9.3 km/h 17.7 km/h 76.6% 0 mm 512 W/m2
10:14 8 °C 4.5 °C 1022.6 hPa WSW 12.4 km/h 17.7 km/h 76% 0 mm 606 W/m2
10:19 7.8 °C 4.4 °C 1022.6 hPa WSW 10.9 km/h 19.3 km/h 76.2% 0 mm 506 W/m2
10:24 7.9 °C 4.6 °C 1022.6 hPa West 9.2 km/h 17.7 km/h 76.5% 0 mm 543 W/m2
10:29 8.3 °C 4.8 °C 1022.6 hPa West 10 km/h 19.3 km/h 76.4% 0 mm 548 W/m2
10:34 8.5 °C 5 °C 1022.6 hPa West 11.9 km/h 20.9 km/h 76% 0 mm 596 W/m2
10:39 8.6 °C 5.2 °C 1022.6 hPa SW 7.9 km/h 22.5 km/h 76.8% 0 mm 601 W/m2
10:44 8.6 °C 5.3 °C 1022.6 hPa WSW 12.6 km/h 19.3 km/h 77% 0 mm 728 W/m2
10:49 9 °C 5.6 °C 1022.2 hPa West 8.4 km/h 19.3 km/h 76.2% 0 mm 728 W/m2
10:54 9.3 °C 5.8 °C 1022.2 hPa WSW 11.6 km/h 17.7 km/h 75.6% 0 mm 577 W/m2
10:59 9.3 °C 5.6 °C 1022.6 hPa WSW 10.5 km/h 17.7 km/h 75.2% 0 mm 520 W/m2
11:04 9.2 °C 5.7 °C 1022.2 hPa SW 14.2 km/h 20.9 km/h 75.8% 0 mm 401 W/m2
11:09 9.3 °C 5.6 °C 1022.2 hPa WSW 9 km/h 19.3 km/h 75.2% 0 mm 689 W/m2
11:14 9.6 °C 5.8 °C 1022.2 hPa WSW 12.6 km/h 20.9 km/h 75% 0 mm 650 W/m2
11:19 9.8 °C 6.2 °C 1022.2 hPa SW 10.8 km/h 17.7 km/h 75.5% 0 mm 763 W/m2
11:24 9.9 °C 6.1 °C 1022.2 hPa WSW 16.6 km/h 22.5 km/h 74% 0 mm 763 W/m2
11:29 9.8 °C 5.9 °C 1022.2 hPa WSW 11.9 km/h 24.1 km/h 74.2% 0 mm 677 W/m2
11:34 9.8 °C 6.1 °C 1022.2 hPa SW 10.9 km/h 20.9 km/h 74.6% 0 mm 728 W/m2
11:39 10.1 °C 6.2 °C 1022.2 hPa West 10.1 km/h 20.9 km/h 73.8% 0 mm 742 W/m2
11:44 10.4 °C 6.2 °C 1022.2 hPa WSW 10.9 km/h 19.3 km/h 72.8% 0 mm 747 W/m2
11:49 10.4 °C 6.2 °C 1021.9 hPa WSW 10.8 km/h 20.9 km/h 72.8% 0 mm 788 W/m2
11:54 10.3 °C 6.2 °C 1021.9 hPa WSW 12.9 km/h 22.5 km/h 73% 0 mm 475 W/m2
11:59 10.2 °C 6 °C 1021.9 hPa West 11.6 km/h 22.5 km/h 72.8% 0 mm 366 W/m2
12:04 10.1 °C 6 °C 1021.9 hPa SW 10 km/h 20.9 km/h 73% 0 mm 142 W/m2
12:09 9.8 °C 5.9 °C 1021.9 hPa SW 9.8 km/h 17.7 km/h 74% 0 mm 246 W/m2
12:14 9.8 °C 5.9 °C 1021.9 hPa West 13.5 km/h 22.5 km/h 74% 0 mm 306 W/m2
12:19 9.9 °C 5.9 °C 1021.9 hPa West 13.2 km/h 22.5 km/h 73.3% 0 mm 770 W/m2
12:24 10.2 °C 6 °C 1021.6 hPa West 8.7 km/h 19.3 km/h 72.8% 0 mm 385 W/m2
12:29 10.2 °C 5.9 °C 1021.6 hPa West 17.1 km/h 29 km/h 72% 0 mm 464 W/m2
12:34 10.2 °C 5.9 °C 1021.6 hPa West 11.3 km/h 25.7 km/h 72.2% 0 mm 661 W/m2
12:39 10.6 °C 6.2 °C 1021.6 hPa SW 9.8 km/h 17.7 km/h 71.8% 0 mm 661 W/m2
12:44 10.6 °C 6.1 °C 1021.6 hPa West 8.4 km/h 16.1 km/h 71.6% 0 mm 487 W/m2
12:49 10.7 °C 6.2 °C 1021.6 hPa SW 11.3 km/h 19.3 km/h 72% 0 mm 487 W/m2
12:54 10.2 °C 6.1 °C 1021.6 hPa SW 12.6 km/h 22.5 km/h 72.8% 0 mm 330 W/m2
13:04 10.6 °C 6.4 °C 1021.2 hPa West 8.9 km/h 17.7 km/h 73.2% 0 mm 399 W/m2
13:09 10.5 °C 6.3 °C 1021.2 hPa West 10.8 km/h 20.9 km/h 73% 0 mm 279 W/m2
13:14 10.4 °C 6.2 °C 1021.2 hPa WSW 10.3 km/h 22.5 km/h 72.8% 0 mm 192 W/m2
13:19 10.2 °C 6.2 °C 1021.2 hPa WSW 8 km/h 19.3 km/h 73% 0 mm 227 W/m2
13:24 10.3 °C 6.2 °C 1021.2 hPa West 11.4 km/h 17.7 km/h 72.6% 0 mm 315 W/m2
13:29 10.4 °C 6.2 °C 1021.2 hPa WSW 11.6 km/h 17.7 km/h 72.4% 0 mm 276 W/m2
13:39 10.2 °C 6.2 °C 1020.9 hPa SW 13.8 km/h 22.5 km/h 73% 0 mm 155 W/m2
13:44 10.1 °C 6 °C 1020.9 hPa SW 13.2 km/h 20.9 km/h 73% 0 mm 253 W/m2
13:49 10.2 °C 6.1 °C 1020.9 hPa WSW 12.6 km/h 20.9 km/h 72.6% 0 mm 250 W/m2
13:54 10.3 °C 5.8 °C 1020.9 hPa WSW 10.3 km/h 20.9 km/h 71.2% 0 mm 253 W/m2
13:59 10.3 °C 5.8 °C 1020.9 hPa WSW 10.8 km/h 19.3 km/h 71% 0 mm 276 W/m2
14:04 10.4 °C 5.6 °C 1020.9 hPa WNW 11.3 km/h 22.5 km/h 70% 0 mm 267 W/m2
14:09 10.3 °C 5.2 °C 1020.9 hPa West 10.6 km/h 19.3 km/h 68.8% 0 mm 232 W/m2
14:14 10.2 °C 5 °C 1020.9 hPa WNW 13.4 km/h 22.5 km/h 68% 0 mm 179 W/m2
14:19 10.2 °C 5 °C 1020.5 hPa West 9 km/h 16.1 km/h 68% 0 mm 167 W/m2
14:24 10.3 °C 5.1 °C 1020.5 hPa West 10.5 km/h 19.3 km/h 68% 0 mm 151 W/m2
14:29 10.1 °C 5 °C 1020.5 hPa WSW 14.5 km/h 19.3 km/h 68.4% 0 mm 128 W/m2
14:34 9.9 °C 5 °C 1020.5 hPa West 15.9 km/h 22.5 km/h 68.8% 0 mm 104 W/m2
14:39 9.8 °C 4.7 °C 1020.5 hPa West 4.8 km/h 19.3 km/h 68% 0 mm 121 W/m2
14:44 9.8 °C 4.8 °C 1020.5 hPa West 11.9 km/h 22.5 km/h 68.2% 0 mm 125 W/m2
14:49 9.7 °C 4.8 °C 1020.5 hPa WNW 9.2 km/h 22.5 km/h 69% 0 mm 93 W/m2
14:54 9.7 °C 4.8 °C 1020.5 hPa West 9.3 km/h 16.1 km/h 69% 0 mm 86 W/m2
14:59 9.7 °C 4.8 °C 1020.2 hPa West 12.7 km/h 20.9 km/h 69.4% 0 mm 81 W/m2
15:04 9.6 °C 4.9 °C 1020.2 hPa West 8 km/h 16.1 km/h 70% 0 mm 91 W/m2
15:09 9.6 °C 4.9 °C 1020.2 hPa West 5.3 km/h 16.1 km/h 70% 0 mm 123 W/m2
15:14 9.6 °C 5 °C 1020.2 hPa West 9.7 km/h 17.7 km/h 70.4% 0 mm 200 W/m2
15:19 9.7 °C 5.2 °C 1020.2 hPa West 11.9 km/h 17.7 km/h 71% 0 mm 244 W/m2
15:24 9.7 °C 5.4 °C 1019.9 hPa WSW 11.4 km/h 16.1 km/h 72% 0 mm 239 W/m2
15:29 9.7 °C 5.4 °C 1019.9 hPa West 8.4 km/h 17.7 km/h 72% 0 mm 199 W/m2
15:34 9.8 °C 5.7 °C 1019.9 hPa West 11.9 km/h 20.9 km/h 73% 0 mm 137 W/m2
15:39 9.7 °C 5.6 °C 1019.9 hPa West 10.5 km/h 20.9 km/h 73.2% 0 mm 93 W/m2
15:44 9.6 °C 5.7 °C 1019.9 hPa WSW 11.4 km/h 20.9 km/h 74% 0 mm 72 W/m2
15:49 9.6 °C 5.7 °C 1019.5 hPa WSW 13 km/h 19.3 km/h 74% 0 mm 67 W/m2
15:54 9.4 °C 5.7 °C 1019.5 hPa West 12.6 km/h 19.3 km/h 75% 0 mm 105 W/m2
15:59 9.3 °C 5.7 °C 1019.5 hPa West 9 km/h 20.9 km/h 75.8% 0 mm 113 W/m2
16:04 9.3 °C 5.8 °C 1019.5 hPa West 7.6 km/h 16.1 km/h 76% 0 mm 105 W/m2
16:09 9.2 °C 5.6 °C 1019.5 hPa WNW 12.6 km/h 17.7 km/h 75.6% 0 mm 90 W/m2
16:14 9.2 °C 5.7 °C 1019.5 hPa West 10 km/h 16.1 km/h 76% 0 mm 76 W/m2
16:19 9.2 °C 5.7 °C 1019.5 hPa WSW 9.5 km/h 12.9 km/h 75.8% 0 mm 70 W/m2
16:24 9.2 °C 5.7 °C 1019.5 hPa West 9.7 km/h 12.9 km/h 76% 0 mm 65 W/m2
16:29 9.2 °C 5.7 °C 1019.5 hPa West 10 km/h 19.3 km/h 76% 0 mm 76 W/m2
16:33 9.2 °C 5.7 °C 1019.5 hPa West 13.2 km/h 20.9 km/h 76.3% 0 mm 100 W/m2
16:44 9.1 °C 5.8 °C 1019.2 hPa West 8.4 km/h 20.9 km/h 77% 0 mm 56 W/m2
16:49 9.1 °C 5.8 °C 1019.2 hPa West 5.6 km/h 12.9 km/h 77% 0 mm 30 W/m2
16:59 8.8 °C 5.6 °C 1019.2 hPa West 7.4 km/h 19.3 km/h 77% 0 mm 74 W/m2
17:04 8.8 °C 5.5 °C 1019.2 hPa West 10.3 km/h 16.1 km/h 77% 0 mm 91 W/m2
17:09 8.8 °C 5.5 °C 1019.2 hPa West 10 km/h 20.9 km/h 77% 0 mm 93 W/m2
17:14 8.8 °C 5.5 °C 1019.2 hPa West 9.3 km/h 20.9 km/h 77% 0 mm 69 W/m2
17:24 8.8 °C 5.7 °C 1018.8 hPa WNW 10.9 km/h 19.3 km/h 78% 0 mm 84 W/m2
17:29 8.7 °C 5.6 °C 1018.8 hPa West 12.9 km/h 17.7 km/h 78% 0 mm 79 W/m2
17:34 8.6 °C 5.5 °C 1018.8 hPa West 10.9 km/h 22.5 km/h 78% 0 mm 65 W/m2
17:39 8.5 °C 5.4 °C 1018.8 hPa West 11.6 km/h 22.5 km/h 78% 0 mm 53 W/m2
17:44 8.4 °C 5.6 °C 1018.8 hPa West 10.3 km/h 20.9 km/h 79% 0 mm 51 W/m2
17:49 8.4 °C 5.6 °C 1018.8 hPa West 12.6 km/h 19.3 km/h 79% 0 mm 51 W/m2
17:59 8.2 °C 5.4 °C 1018.8 hPa WNW 10.8 km/h 17.7 km/h 80% 0 mm 53 W/m2
18:04 8.2 °C 5.4 °C 1018.8 hPa West 10.1 km/h 17.7 km/h 80% 0 mm 62 W/m2
18:09 8.2 °C 5.6 °C 1018.8 hPa WSW 8.9 km/h 16.1 km/h 80.8% 0 mm 65 W/m2
18:14 8.2 °C 5.6 °C 1018.8 hPa WSW 10.5 km/h 17.7 km/h 81% 0 mm 72 W/m2
18:19 8.2 °C 5.6 °C 1018.8 hPa WSW 6.4 km/h 17.7 km/h 81% 0 mm 70 W/m2
18:24 8.2 °C 5.6 °C 1018.8 hPa WSW 9.5 km/h 16.1 km/h 81% 0 mm 47 W/m2
18:29 8.2 °C 5.6 °C 1018.8 hPa WSW 8.5 km/h 17.7 km/h 81% 0 mm 63 W/m2
18:34 8.3 °C 5.7 °C 1018.5 hPa WSW 6.9 km/h 17.7 km/h 81% 0 mm 56 W/m2
18:39 8.3 °C 5.7 °C 1018.5 hPa WSW 11.3 km/h 19.3 km/h 81% 0 mm 54 W/m2
18:44 8.3 °C 5.7 °C 1018.5 hPa SW 7.7 km/h 16.1 km/h 81% 0 mm 40 W/m2
18:49 8.4 °C 5.8 °C 1018.5 hPa WSW 9 km/h 14.5 km/h 81% 0 mm 33 W/m2
18:59 8.3 °C 5.7 °C 1018.2 hPa WSW 9.7 km/h 20.9 km/h 81% 0 mm 16 W/m2
19:04 8.3 °C 5.7 °C 1018.2 hPa WSW 11.9 km/h 16.1 km/h 81% 0 mm 19 W/m2
19:09 8.3 °C 5.7 °C 1018.2 hPa West 8.4 km/h 16.1 km/h 81% 0 mm 19 W/m2
19:19 8.4 °C 5.8 °C 1018.2 hPa WSW 7.4 km/h 12.9 km/h 81.4% 0 mm 18 W/m2
19:24 8.3 °C 5.9 °C 1018.2 hPa West 7.4 km/h 16.1 km/h 82% 0 mm 12 W/m2
19:29 8.3 °C 5.9 °C 1017.8 hPa West 9.2 km/h 12.9 km/h 82% 0 mm 11 W/m2
19:34 8.3 °C 5.9 °C 1017.8 hPa West 5.3 km/h 12.9 km/h 82% 0 mm 11 W/m2
19:39 8.3 °C 5.9 °C 1017.8 hPa West 7.6 km/h 11.3 km/h 82% 0 mm 5 W/m2
19:44 8.2 °C 5.8 °C 1017.8 hPa West 10 km/h 12.9 km/h 82% 0 mm 0 W/m2
19:49 8.1 °C 5.7 °C 1017.8 hPa West 11.9 km/h 17.7 km/h 82% 0 mm 0 W/m2
19:54 8.1 °C 5.7 °C 1017.8 hPa WNW 10 km/h 19.3 km/h 82% 0 mm 0 W/m2
20:04 7.9 °C 5.5 °C 1017.8 hPa WNW 13.2 km/h 17.7 km/h 82% 0 mm 0 W/m2
20:09 7.8 °C 5.4 °C 1017.8 hPa West 9.5 km/h 16.1 km/h 82% 0 mm 0 W/m2
20:14 7.8 °C 5.4 °C 1017.8 hPa West 7.2 km/h 12.9 km/h 82% 0 mm 0 W/m2
20:19 7.8 °C 5.4 °C 1017.8 hPa West 6.8 km/h 12.9 km/h 82% 0 mm 0 W/m2
20:24 7.8 °C 5.4 °C 1017.8 hPa West 8 km/h 17.7 km/h 82% 0 mm 0 W/m2
20:29 7.8 °C 5.4 °C 1017.8 hPa West 7.1 km/h 17.7 km/h 82% 0 mm 0 W/m2
20:34 7.8 °C 5.4 °C 1017.8 hPa West 4.5 km/h 12.9 km/h 82% 0 mm 0 W/m2
20:44 7.7 °C 5.3 °C 1017.5 hPa West 5.1 km/h 11.3 km/h 82% 0 mm 0 W/m2
20:49 7.7 °C 5.3 °C 1017.8 hPa West 6.4 km/h 14.5 km/h 82% 0 mm 0 W/m2
20:54 7.7 °C 5.3 °C 1017.8 hPa West 6.6 km/h 14.5 km/h 82% 0 mm 0 W/m2
20:59 7.7 °C 5.3 °C 1017.8 hPa West 6.9 km/h 11.3 km/h 82% 0 mm 0 W/m2
21:04 7.7 °C 5.3 °C 1017.8 hPa West 6.4 km/h 11.3 km/h 82% 0 mm 0 W/m2
21:09 7.7 °C 5.3 °C 1017.8 hPa West 5.1 km/h 11.3 km/h 82% 0 mm 0 W/m2
21:14 7.7 °C 5.3 °C 1017.8 hPa West 7.6 km/h 11.3 km/h 82% 0 mm 0 W/m2
21:19 7.6 °C 5.2 °C 1017.8 hPa West 4.8 km/h 12.9 km/h 82% 0 mm 0 W/m2
21:24 7.6 °C 5.2 °C 1017.8 hPa West 7.1 km/h 9.7 km/h 82% 0 mm 0 W/m2
21:29 7.6 °C 5.2 °C 1017.5 hPa West 5.1 km/h 11.3 km/h 82% 0 mm 0 W/m2
21:34 7.6 °C 5.2 °C 1017.5 hPa West 5.3 km/h 9.7 km/h 82% 0 mm 0 W/m2
21:39 7.6 °C 5.2 °C 1017.5 hPa West 5.8 km/h 9.7 km/h 82% 0 mm 0 W/m2
21:44 7.6 °C 5.2 °C 1017.5 hPa West 6 km/h 9.7 km/h 82% 0 mm 0 W/m2
21:49 7.5 °C 5.1 °C 1017.5 hPa West 4.5 km/h 11.3 km/h 82% 0 mm 0 W/m2
21:54 7.4 °C 5 °C 1017.5 hPa West 4.5 km/h 9.7 km/h 82% 0 mm 0 W/m2
21:59 7.4 °C 5 °C 1017.2 hPa West 4.5 km/h 9.7 km/h 82% 0 mm 0 W/m2
22:04 7.4 °C 5 °C 1017.2 hPa West 6.8 km/h 11.3 km/h 82% 0 mm 0 W/m2
22:09 7.4 °C 5 °C 1017.2 hPa West 5 km/h 9.7 km/h 82% 0 mm 0 W/m2
22:14 7.4 °C 5 °C 1017.2 hPa West 6 km/h 9.7 km/h 82% 0 mm 0 W/m2
22:19 7.4 °C 5.1 °C 1017.2 hPa West 6.1 km/h 14.5 km/h 82.2% 0 mm 0 W/m2
22:24 7.5 °C 5.2 °C 1017.2 hPa West 10.9 km/h 22.5 km/h 82.4% 0 mm 0 W/m2
22:29 7.6 °C 5.2 °C 1017.2 hPa West 7.6 km/h 16.1 km/h 82% 0 mm 0 W/m2
22:34 7.4 °C 4.8 °C 1017.2 hPa West 6.6 km/h 11.3 km/h 81% 0 mm 0 W/m2
22:39 7.4 °C 4.7 °C 1016.8 hPa WSW 7.7 km/h 12.9 km/h 80.4% 0 mm 0 W/m2
22:44 7.3 °C 4.7 °C 1016.8 hPa WSW 6.4 km/h 11.3 km/h 80% 0 mm 0 W/m2
22:49 7.3 °C 4.5 °C 1016.8 hPa WSW 7.7 km/h 14.5 km/h 79.4% 0 mm 0 W/m2
22:54 7.3 °C 4.4 °C 1016.8 hPa West 6.4 km/h 16.1 km/h 79% 0 mm 0 W/m2
22:59 7.3 °C 4.4 °C 1016.8 hPa West 5.3 km/h 9.7 km/h 79% 0 mm 0 W/m2
23:04 7.2 °C 4.3 °C 1016.8 hPa West 7.4 km/h 12.9 km/h 79% 0 mm 0 W/m2
23:09 7.2 °C 4.3 °C 1016.8 hPa West 6.6 km/h 12.9 km/h 79% 0 mm 0 W/m2
23:19 7.1 °C 4.3 °C 1016.5 hPa WSW 8 km/h 12.9 km/h 79.2% 0 mm 0 W/m2
23:24 7.1 °C 4.4 °C 1016.5 hPa WSW 5.1 km/h 12.9 km/h 80% 0 mm 0 W/m2
23:29 7.1 °C 4.3 °C 1016.5 hPa WSW 4.7 km/h 9.7 km/h 80% 0 mm 0 W/m2
23:34 6.9 °C 4.2 °C 1016.5 hPa WSW 4.8 km/h 9.7 km/h 80% 0 mm 0 W/m2
23:39 6.9 °C 4.2 °C 1016.5 hPa WSW 5.3 km/h 9.7 km/h 80% 0 mm 0 W/m2
23:44 6.8 °C 4.1 °C 1016.1 hPa WSW 5.5 km/h 9.7 km/h 80% 0 mm 0 W/m2
23:49 6.8 °C 4.1 °C 1016.1 hPa WSW 4.8 km/h 9.7 km/h 80% 0 mm 0 W/m2
23:54 6.8 °C 4.1 °C 1016.1 hPa WSW 4 km/h 8 km/h 80% 0 mm 0 W/m2
23:59 6.7 °C 4.2 °C 1016.1 hPa WSW 3.5 km/h 6.4 km/h 80.8% 0 mm 0 W/m2
Bath Spa Weather
Compliments of Weather Underground - 2 mb